Latest Coastal Weather Observations for Point Perpendicular

IDN60701

Issued at 2:11 pm EDT Sunday 20 October 2019 (issued every 10 minutes, with the page automatically refreshed every 10 minutes)

About coastal observations | Map of coastal stations | Coastal observations for NSW | Marine services | Other Formats
Station Details ID: 068151 Name: POINT PERPENDICULAR AWS Lat: -35.09 Lon: 150.80 Height: 85.0 m
Data from the previous 72 hours. | See also: Recent months at Point Perpendicular
Date/Time
EDT
Wind Sea
Height
m
Swell Vis
km
Cloud Weather Temp
°C
Press
hPa
Rain since
9am
mm
Dir  Spd
kts
Gust
kts
Height
m
Period
s
Dir
20/02:00pm SE 10 14 - - - - - - - 16.2 1021.3 0.0
20/01:30pm SE 9 14 - - - - - - - 16.0 1021.6 0.0
20/01:00pm SE 9 13 - - - - - - - 16.3 1021.5 0.0
20/12:30pm SE 8 12 - - - - - - - 17.4 1021.7 0.0
20/12:00pm S 8 11 - - - - - - - 17.1 1022.1 0.0
20/11:30am S 8 12 - - - - - - - 17.1 1022.4 0.0
20/11:00am SSW 9 13 - - - - - - - 16.5 1022.6 0.0
20/10:30am SSW 10 16 - - - - - - - 15.8 1022.6 0.0
20/10:00am SW 9 16 - - - - - - - 15.9 1022.4 0.0
20/09:30am WSW 5 9 - - - - - - - 15.6 1022.4 0.0
20/09:00am W 2 5 - - - - - - - 14.7 1022.1 0.0
20/08:30am W 3 6 - - - - - - - 14.1 1021.7 0.0
20/08:00am W 2 5 - - - - - - - 13.3 1021.3 0.0
20/07:30am WNW 3 7 - - - - - - - 12.9 1021.1 0.0
20/07:00am WNW 3 4 - - - - - - - 12.7 1020.7 0.0
20/06:30am WNW 4 6 - - - - - - - 12.4 1020.5 0.0
20/06:00am W 2 3 - - - - - - - 12.5 1019.9 0.0
20/05:30am W 3 5 - - - - - - - 12.3 1019.5 0.0
20/05:00am W 3 5 - - - - - - - 12.8 1019.3 0.0
20/04:30am W 2 4 - - - - - - - 13.0 1019.1 0.0
20/04:00am W 3 5 - - - - - - - 12.7 1019.2 0.0
20/03:30am WNW 3 4 - - - - - - - 11.7 1019.4 0.0
20/03:00am NW 4 5 - - - - - - - 11.9 1019.4 0.0
20/02:30am WNW 2 3 - - - - - - - 12.3 1019.5 0.0
20/02:00am WNW 2 2 - - - - - - - 13.2 1019.7 0.0
20/01:30am WNW 2 2 - - - - - - - 12.5 1019.8 0.0
20/01:00am WSW 1 2 - - - - - - - 13.7 1019.9 0.0
20/12:30am SSW 2 4 - - - - - - - 14.1 1019.9 0.0
20/12:00am S 3 5 - - - - - - - 14.0 1019.9 0.0
 
Date/Time
EDT
Wind Sea
Height
m
Swell Vis
km
Cloud Weather Temp
°C
Press
hPa
Rain since
9am
mm
Dir  Spd
kts
Gust
kts
Height
m
Period
s
Dir
19/11:30pm SSE 4 6 - - - - - - - 14.1 1019.6 0.0
19/11:00pm SSE 7 11 - - - - - - - 14.4 1019.4 0.0
19/10:30pm SSE 9 13 - - - - - - - 14.2 1019.1 0.0
19/10:00pm SSE 9 13 - - - - - - - 14.4 1018.6 0.0
19/09:30pm S 10 16 - - - - - - - 14.6 1018.4 0.0
19/09:00pm S 10 15 - - - - - - - 14.6 1017.9 0.0
19/08:30pm S 10 15 - - - - - - - 14.7 1017.1 0.0
19/08:00pm S 13 19 - - - - - - - 14.5 1016.4 0.0
19/07:30pm S 14 23 - - - - - - - 14.8 1015.6 0.0
19/07:00pm S 13 19 - - - - - - - 15.2 1014.8 0.0
19/06:30pm S 15 25 - - - - - - - 15.3 1014.0 0.0
19/06:00pm S 13 21 - - - - - - - 15.7 1013.5 0.0
19/05:30pm S 15 23 - - - - - - - 16.2 1012.9 0.0
19/05:00pm S 13 20 - - - - - - - 16.4 1011.9 0.0
19/04:30pm S 14 24 - - - - - - - 17.4 1011.1 0.0
19/04:00pm SW 12 20 - - - - - - - 18.2 1010.7 0.0
19/03:30pm W 9 17 - - - - - - - 22.5 1010.0 0.0
19/03:00pm W 8 17 - - - - - - - 22.4 1010.2 0.0
19/02:30pm WSW 11 22 - - - - - - - 22.1 1010.1 0.0
19/02:00pm W 10 23 - - - - - - - 23.2 1010.1 0.0
19/01:30pm W 7 16 - - - - - - - 24.0 1009.7 0.0
19/01:00pm W 8 15 - - - - - - - 23.8 1010.3 0.0
19/12:30pm W 8 15 - - - - - - - 23.5 1010.5 0.0
19/12:00pm W 7 17 - - - - - - - 23.6 1010.7 0.0
19/11:30am W 3 8 - - - - - - - 23.8 1011.4 0.0
19/11:00am WNW 8 15 - - - - - - - 24.1 1011.5 0.0
19/10:30am NW 11 19 - - - - - - - 23.3 1011.9 0.0
19/10:00am NNW 8 12 - - - - - - - 22.0 1012.4 0.0
19/09:30am NW 9 14 - - - - - - - 20.9 1012.8 0.0
19/09:00am NW 11 14 - - - - - - - 19.8 1012.9 0.0
19/08:30am NNW 9 13 - - - - - - - 17.7 1013.0 0.0
19/08:00am NW 11 16 - - - - - - - 18.2 1013.0 0.0
19/07:30am NNW 9 12 - - - - - - - 17.9 1012.7 0.0
19/07:00am NNW 10 12 - - - - - - - 17.7 1012.4 0.0
19/06:30am NW 10 12 - - - - - - - 17.4 1012.2 0.0
19/06:00am NW 10 15 - - - - - - - 17.1 1012.2 0.0
19/05:30am NW 9 15 - - - - - - - 17.7 1012.0 0.0
19/05:00am NNW 8 10 - - - - - - - 17.4 1011.9 0.0
19/04:30am N 7 10 - - - - - - - 18.0 1012.1 0.0
19/04:00am NNW 7 9 - - - - - - - 17.9 1012.0 0.0
19/03:30am NNW 8 11 - - - - - - - 17.5 1012.2 0.0
19/03:00am N 8 10 - - - - - - - 17.4 1012.6 0.0
19/02:30am NNW 9 11 - - - - - - - 17.4 1012.7 0.0
19/02:00am NNW 8 8 - - - - - - - 16.8 1013.0 0.0
19/01:30am NNW 8 9 - - - - - - - 16.6 1013.4 0.0
19/01:00am NNW 8 8 - - - - - - - 16.8 1013.8 0.0
19/12:30am NNW 9 10 - - - - - - - 16.9 1013.7 0.0
19/12:00am N 7 8 - - - - - - - 17.9 1014.0 0.0
 
Date/Time
EDT
Wind Sea
Height
m
Swell Vis
km
Cloud Weather Temp
°C
Press
hPa
Rain since
9am
mm
Dir  Spd
kts
Gust
kts
Height
m
Period
s
Dir
18/11:30pm NW 9 10 - - - - - - - 18.1 1013.8 0.0
18/11:00pm NNW 8 10 - - - - - - - 17.8 1013.8 0.0
18/10:30pm NW 9 12 - - - - - - - 17.4 1013.6 0.0
18/10:00pm NW 9 11 - - - - - - - 17.9 1013.7 0.0
18/09:30pm NW 8 10 - - - - - - - 18.7 1013.8 0.0
18/09:00pm NNW 8 10 - - - - - - - 17.7 1013.7 0.0
18/08:30pm N 8 10 - - - - - - - 16.6 1013.4 0.0
18/08:00pm N 11 15 - - - - - - - 16.8 1013.0 0.0
18/07:30pm N 12 16 - - - - - - - 16.8 1012.7 0.0
18/07:00pm N 11 16 - - - - - - - 16.9 1012.2 0.0
18/06:30pm N 12 17 - - - - - - - 17.6 1012.3 0.0
18/06:00pm N 13 20 - - - - - - - 18.4 1012.2 0.0
18/05:30pm NNE 14 22 - - - - - - - 18.6 1012.0 0.0
18/05:00pm NNE 16 22 - - - - - - - 18.9 1012.1 0.0
18/04:30pm NNE 18 25 - - - - - - - 18.9 1012.1 0.0
18/04:00pm NNE 16 21 - - - - - - - 19.2 1012.3 0.0
18/03:30pm NNE 16 23 - - - - - - - 19.0 1012.5 0.0
18/03:00pm NNE 17 21 - - - - - - - 19.9 1012.9 0.0
18/02:30pm NE 17 22 - - - - - - - 19.3 1013.4 0.0
18/02:00pm NE 14 20 - - - - - - - 19.1 1014.1 0.0
18/01:30pm ENE 9 14 - - - - - - - 19.3 1014.4 0.0
18/01:00pm ENE 10 14 - - - - - - - 18.7 1014.9 0.0
18/12:30pm ENE 9 14 - - - - - - - 18.4 1015.4 0.0
18/12:00pm E 7 10 - - - - - - - 17.7 1015.8 0.0
18/11:30am ESE 7 10 - - - - - - - 18.6 1016.2 0.0
18/11:00am SSE 2 7 - - - - - - - 17.3 1016.5 0.0
18/10:30am SW 5 8 - - - - - - - 16.9 1017.0 0.0
18/10:00am W 3 7 - - - - - - - 16.5 1017.0 0.0
18/09:30am W 3 7 - - - - - - - 16.0 1017.1 0.0
18/09:00am W 3 7 - - - - - - - 15.0 1016.9 0.0
18/08:30am WNW 5 8 - - - - - - - 14.3 1016.6 0.0
18/08:00am WNW 6 10 - - - - - - - 13.6 1016.4 0.0
18/07:30am WNW 6 12 - - - - - - - 13.2 1016.3 0.0
18/07:00am WNW 5 6 - - - - - - - 13.0 1015.8 0.0
18/06:30am WNW 4 7 - - - - - - - 13.2 1015.2 0.0
18/06:00am WNW 4 6 - - - - - - - 13.3 1014.6 0.0
18/05:30am WNW 4 9 - - - - - - - 13.4 1013.9 0.0
18/05:00am WNW 4 6 - - - - - - - 13.5 1013.6 0.0
18/04:30am WNW 4 6 - - - - - - - 13.7 1013.1 0.0
18/04:00am W 3 6 - - - - - - - 14.0 1012.8 0.0
18/03:30am W 3 5 - - - - - - - 14.3 1012.7 0.0
18/03:00am W 4 10 - - - - - - - 14.6 1012.4 0.0
18/02:30am W 5 10 - - - - - - - 14.7 1012.3 0.0
18/02:00am WSW 5 11 - - - - - - - 14.8 1012.5 0.0
18/01:30am WSW 6 11 - - - - - - - 14.8 1012.6 0.0
18/01:00am WSW 8 13 - - - - - - - 15.1 1013.0 0.0
18/12:30am W 7 16 - - - - - - - 15.2 1013.0 0.0
18/12:00am W 5 13 - - - - - - - 15.2 1012.9 0.0
 
Date/Time
EDT
Wind Sea
Height
m
Swell Vis
km
Cloud Weather Temp
°C
Press
hPa
Rain since
9am
mm
Dir  Spd
kts
Gust
kts
Height
m
Period
s
Dir
17/11:30pm W 5 11 - - - - - - - 15.4 1012.3 0.0
17/11:00pm W 5 12 - - - - - - - 15.5 1012.5 0.0
17/10:30pm W 5 11 - - - - - - - 15.6 1012.2 0.0
17/10:00pm W 5 12 - - - - - - - 15.8 1012.0 0.0
17/09:30pm W 8 16 - - - - - - - 15.7 1011.7 0.0
17/09:00pm W 8 19 - - - - - - - 15.9 1011.3 0.0
17/08:30pm WSW 12 22 - - - - - - - 16.3 1011.2 0.0
17/08:00pm WSW 7 13 - - - - - - - 16.7 1010.6 0.0
17/07:30pm W 9 20 - - - - - - - 17.2 1009.6 0.0
17/07:00pm W 9 20 - - - - - - - 17.6 1008.5 0.0
17/06:30pm W 9 22 - - - - - - - 18.2 1007.9 0.0
17/06:00pm W 10 19 - - - - - - - 18.5 1007.5 0.0
17/05:30pm W 9 18 - - - - - - - 18.6 1006.6 0.0
17/05:00pm W 8 17 - - - - - - - 18.6 1006.1 0.0
17/04:30pm WNW 16 28 - - - - - - - 18.9 1005.6 0.0
17/04:26pm WNW 15 27 - - - - - - - 18.9 1005.7 0.0
17/04:00pm W 10 19 - - - - - - - 19.0 1005.8 0.0
17/03:30pm W 13 25 - - - - - - - 19.3 1005.6 0.0
17/03:00pm W 12 21 - - - - - - - 19.5 1005.7 0.0
17/02:30pm W 11 22 - - - - - - - 20.0 1004.9 0.0

Other formats

Comma delimited format used in spreadsheet applications
http://www.bom.gov.au/fwo/IDN60701/IDN60701.95940.axf

JavaScript Object Notation format (JSON) in row-major order
http://www.bom.gov.au/fwo/IDN60701/IDN60701.95940.json

Data quality

Most of these data are generated automatically and are frequently updated. Quality checks on data are not normally performed. It is possible for incorrect values to appear. Refer to information at About Latest Weather Observations and please check the disclaimer before using these data.